Time;durP1;ratioP1;P1;durP2;ratioP2;P2;SDS_P1;SDS_P2;PMS_P1;PMS_P2;Temp;Humidity;BMP_temperature;BMP_pressure;BME280_temperature;BME280_humidity;BME280_pressure;Samples;Min_cycle;Max_cycle;Signal;HPM_P1;HPM_P2
2022/08/10 00:00:25;;;;;;;0.00;0.00;;;19.40;99.90;;;;;;5032469;28;20028;-75
2022/08/10 00:02:54;;;;;;;0.00;0.00;;;19.60;99.90;;;;;;5033727;28;20033;-75
2022/08/10 00:05:21;;;;;;;0.60;0.60;;;19.60;99.90;;;;;;5035626;28;20557;-75
2022/08/10 00:07:48;;;;;;;0.00;0.00;;;19.70;99.90;;;;;;5043191;28;20061;-75
2022/08/10 00:10:17;;;;;;;0.00;0.00;;;20.00;99.90;;;;;;5038070;28;20037;-75
2022/08/10 00:12:43;;;;;;;0.00;0.00;;;20.10;99.90;;;;;;5031574;28;20087;-75
2022/08/10 00:15:12;;;;;;;0.00;0.00;;;20.20;99.90;;;;;;5032138;28;20480;-75
2022/08/10 00:17:38;;;;;;;0.75;0.50;;;20.30;99.90;;;;;;5040356;28;20049;-75
2022/08/10 00:20:06;;;;;;;0.13;0.10;;;20.40;99.90;;;;;;5041369;28;20033;-76
2022/08/10 00:22:32;;;;;;;0.70;0.70;;;20.50;99.90;;;;;;5038167;28;20045;-76
2022/08/10 00:24:59;;;;;;;0.00;0.00;;;20.50;99.90;;;;;;5042665;28;20072;-75
2022/08/10 00:27:26;;;;;;;0.35;0.30;;;20.30;99.90;;;;;;5045210;28;20029;-75
2022/08/10 00:29:52;;;;;;;0.68;0.22;;;20.10;99.90;;;;;;5043952;28;20041;-75
2022/08/10 00:32:18;;;;;;;0.00;0.00;;;19.90;99.90;;;;;;5037531;28;20220;-75
2022/08/10 00:34:45;;;;;;;0.10;0.10;;;19.90;99.90;;;;;;5035178;28;20048;-75
2022/08/10 00:37:12;;;;;;;0.00;0.00;;;19.90;99.90;;;;;;5037794;28;20375;-76
2022/08/10 00:39:39;;;;;;;0.00;0.00;;;20.00;99.90;;;;;;5038896;28;20488;-76
2022/08/10 00:42:07;;;;;;;0.00;0.00;;;20.10;99.90;;;;;;5037383;28;20041;-77
2022/08/10 00:44:40;;;;;;;0.22;0.22;;;20.30;99.90;;;;;;5033316;28;20514;-75
2022/08/10 00:47:07;;;;;;;0.00;0.00;;;20.40;99.90;;;;;;5039957;28;20492;-75
2022/08/10 00:49:34;;;;;;;1.05;0.38;;;20.50;99.90;;;;;;5020906;28;20071;-76
2022/08/10 00:52:01;;;;;;;0.15;0.15;;;20.70;99.90;;;;;;5029425;28;20032;-77
2022/08/10 00:54:28;;;;;;;0.00;0.00;;;20.80;99.90;;;;;;5042785;28;20037;-75
2022/08/10 00:56:54;;;;;;;0.10;0.10;;;20.90;99.90;;;;;;5039891;28;20108;-77
2022/08/10 00:59:20;;;;;;;0.00;0.00;;;20.90;99.90;;;;;;5039882;28;20037;-75
2022/08/10 01:01:46;;;;;;;0.82;0.82;;;21.00;99.90;;;;;;5034448;28;20037;-76
2022/08/10 01:04:12;;;;;;;0.00;0.00;;;21.10;99.90;;;;;;5035100;28;20036;-76
2022/08/10 01:06:45;;;;;;;0.00;0.00;;;21.20;99.90;;;;;;5033677;28;20816;-75
2022/08/10 01:09:34;;;;;;;0.38;0.20;;;21.30;99.90;;;;;;5037465;28;20036;-75
2022/08/10 01:12:23;;;;;;;0.10;0.10;;;21.50;99.90;;;;;;5041985;28;20592;-75
2022/08/10 01:14:55;;;;;;;0.00;0.00;;;21.40;99.90;;;;;;5032870;28;20040;-75
2022/08/10 01:17:40;;;;;;;0.00;0.00;;;21.60;99.90;;;;;;5038720;28;20501;-75
2022/08/10 01:20:23;;;;;;;0.95;0.95;;;21.60;99.90;;;;;;5038863;28;20029;-75
2022/08/10 01:23:24;;;;;;;0.00;0.00;;;21.70;99.90;;;;;;5032386;28;20044;-76
2022/08/10 01:26:18;;;;;;;1.40;0.85;;;21.80;99.90;;;;;;5040718;28;20079;-76
2022/08/10 01:29:00;;;;;;;0.00;0.00;;;21.90;99.90;;;;;;5038622;28;20041;-76
2022/08/10 01:31:36;;;;;;;0.32;0.32;;;21.90;99.90;;;;;;5036892;28;20108;-76
2022/08/10 01:34:10;;;;;;;0.00;0.00;;;22.00;99.90;;;;;;5034644;28;20401;-75
2022/08/10 01:37:02;;;;;;;0.10;0.10;;;22.00;99.90;;;;;;5038844;28;20088;-75
2022/08/10 01:39:36;;;;;;;0.00;0.00;;;22.00;99.90;;;;;;5036824;28;20037;-75
2022/08/10 01:42:03;;;;;;;0.93;0.40;;;22.10;99.90;;;;;;5038472;28;20075;-76
2022/08/10 01:44:38;;;;;;;0.35;0.35;;;22.20;99.90;;;;;;5037838;28;21048;-76
2022/08/10 01:50:07;;;;;;;0.00;0.00;;;22.40;99.90;;;;;;5041205;28;20048;-76
2022/08/10 01:52:36;;;;;;;0.10;0.10;;;22.40;99.90;;;;;;5039581;28;20136;-76
2022/08/10 01:55:03;;;;;;;0.00;0.00;;;22.50;99.90;;;;;;5037841;28;20033;-76
2022/08/10 01:57:32;;;;;;;0.00;0.00;;;22.50;99.90;;;;;;5032391;28;20029;-76
2022/08/10 02:00:00;;;;;;;8.68;0.52;;;22.50;99.90;;;;;;5031940;28;20037;-76
2022/08/10 02:02:29;;;;;;;0.00;0.00;;;22.60;99.90;;;;;;5039451;28;20033;-76
2022/08/10 02:04:57;;;;;;;0.00;0.00;;;22.80;99.90;;;;;;5034211;28;20079;-76
2022/08/10 02:07:27;;;;;;;0.00;0.00;;;22.90;99.90;;;;;;5036812;28;20032;-76
2022/08/10 02:09:58;;;;;;;0.00;0.00;;;22.90;99.90;;;;;;5029210;28;20026;-76
2022/08/10 02:12:29;;;;;;;0.00;0.00;;;23.00;99.90;;;;;;5037583;28;20165;-76
2022/08/10 02:14:59;;;;;;;0.00;0.00;;;23.20;99.90;;;;;;5035052;28;20065;-77
2022/08/10 02:17:35;;;;;;;0.00;0.00;;;23.50;99.90;;;;;;5032263;28;20061;-76
2022/08/10 02:20:14;;;;;;;0.00;0.00;;;23.90;99.90;;;;;;5034561;28;20404;-77
2022/08/10 02:22:42;;;;;;;0.00;0.00;;;24.40;99.90;;;;;;5028964;28;20033;-76
2022/08/10 02:25:10;;;;;;;0.00;0.00;;;24.80;99.90;;;;;;5036139;28;20498;-76
2022/08/10 02:27:37;;;;;;;0.00;0.00;;;25.00;99.90;;;;;;5029938;28;20084;-76
2022/08/10 02:30:13;;;;;;;0.00;0.00;;;24.90;99.90;;;;;;5038717;28;20032;-77
2022/08/10 02:32:41;;;;;;;0.00;0.00;;;25.00;99.90;;;;;;5023881;28;20030;-76
2022/08/10 02:35:11;;;;;;;0.00;0.00;;;25.10;99.90;;;;;;5030009;28;20400;-76
2022/08/10 02:37:39;;;;;;;0.00;0.00;;;25.40;99.90;;;;;;5026472;28;20034;-77
2022/08/10 02:40:07;;;;;;;0.10;0.10;;;25.70;98.80;;;;;;5032470;28;20120;-76
2022/08/10 02:43:04;;;;;;;0.00;0.00;;;26.30;93.40;;;;;;5029666;28;20052;-77
2022/08/10 02:45:41;;;;;;;0.15;0.08;;;26.80;90.70;;;;;;4992246;28;20484;-76
2022/08/10 02:48:32;;;;;;;0.00;0.00;;;27.20;83.60;;;;;;5022032;28;20128;-76
2022/08/10 02:51:04;;;;;;;0.38;0.35;;;27.20;79.50;;;;;;5029935;28;20036;-76
2022/08/10 02:53:51;;;;;;;2.47;2.28;;;26.80;78.10;;;;;;5036652;28;20044;-76
2022/08/10 02:56:42;;;;;;;0.30;0.30;;;26.20;79.50;;;;;;5025890;28;20033;-76
2022/08/10 02:59:28;;;;;;;0.60;0.20;;;26.00;83.60;;;;;;5018635;28;20041;-76
2022/08/10 03:01:58;;;;;;;0.20;0.20;;;26.40;81.50;;;;;;5014283;28;20045;-74
2022/08/10 03:04:34;;;;;;;13.07;1.75;;;27.00;79.10;;;;;;5023833;28;20033;-77
2022/08/10 03:07:04;;;;;;;0.10;0.10;;;27.10;71.90;;;;;;5029579;28;20033;-75
2022/08/10 03:09:35;;;;;;;0.10;0.10;;;26.80;68.70;;;;;;5022181;28;20065;-73
2022/08/10 03:12:05;;;;;;;0.00;0.00;;;26.60;68.70;;;;;;5020597;28;20038;-74
2022/08/10 03:14:33;;;;;;;0.47;0.47;;;26.30;68.50;;;;;;5022016;28;20353;-74
2022/08/10 03:17:01;;;;;;;0.05;0.05;;;26.30;68.50;;;;;;5018520;28;20042;-74
2022/08/10 03:19:28;;;;;;;0.70;0.60;;;26.30;68.10;;;;;;5026711;28;20265;-75
2022/08/10 03:21:56;;;;;;;0.43;0.43;;;26.50;64.50;;;;;;5026720;28;20384;-75
2022/08/10 03:24:24;;;;;;;0.00;0.00;;;26.40;63.90;;;;;;5022948;28;20794;-74
2022/08/10 03:26:53;;;;;;;1.45;0.98;;;26.40;64.60;;;;;;5022975;28;20049;-75
2022/08/10 03:29:20;;;;;;;0.17;0.17;;;26.40;63.90;;;;;;5025485;28;20390;-75
2022/08/10 03:31:49;;;;;;;0.47;0.47;;;26.60;67.20;;;;;;5024240;28;20550;-72
2022/08/10 03:34:16;;;;;;;0.00;0.00;;;26.60;67.10;;;;;;5024078;28;20482;-74
2022/08/10 03:36:45;;;;;;;0.43;0.22;;;26.60;69.80;;;;;;5027437;28;20035;-74
2022/08/10 03:39:14;;;;;;;0.70;0.70;;;26.60;71.90;;;;;;5022344;28;20127;-74
2022/08/10 03:41:48;;;;;;;4.07;0.60;;;26.60;72.40;;;;;;5024838;28;20036;-77
2022/08/10 03:44:19;;;;;;;0.00;0.00;;;26.60;70.00;;;;;;5026459;28;20041;-77
2022/08/10 03:46:47;;;;;;;0.00;0.00;;;26.80;69.30;;;;;;5021658;28;20045;-77
2022/08/10 03:49:16;;;;;;;1.27;0.35;;;27.10;67.20;;;;;;5024909;28;20061;-77
2022/08/10 03:51:44;;;;;;;0.00;0.00;;;27.30;64.00;;;;;;5028699;28;20050;-77
2022/08/10 03:54:10;;;;;;;1.17;1.17;;;27.50;63.70;;;;;;5028924;28;20728;-77
2022/08/10 03:56:39;;;;;;;5.53;2.85;;;27.40;71.90;;;;;;5028618;28;20032;-76
2022/08/10 03:59:11;;;;;;;0.00;0.00;;;27.30;71.70;;;;;;5030107;28;20048;-76
2022/08/10 04:01:37;;;;;;;0.40;0.40;;;27.50;68.90;;;;;;5032124;28;20037;-76
2022/08/10 04:04:06;;;;;;;0.03;0.03;;;27.40;69.20;;;;;;5034353;28;20035;-76
2022/08/10 04:06:33;;;;;;;0.03;0.03;;;27.60;67.40;;;;;;5024291;28;20060;-76
2022/08/10 04:09:01;;;;;;;0.00;0.00;;;27.30;72.00;;;;;;5028544;28;20037;-76
2022/08/10 04:11:27;;;;;;;0.00;0.00;;;26.80;66.80;;;;;;5028492;28;20038;-76
2022/08/10 04:13:53;;;;;;;0.57;0.57;;;26.90;67.10;;;;;;5031203;28;20052;-76
2022/08/10 04:16:19;;;;;;;0.08;0.08;;;26.90;66.00;;;;;;5034210;28;20383;-76
2022/08/10 04:18:48;;;;;;;0.22;0.22;;;26.70;65.80;;;;;;5050457;28;20039;-77
2022/08/10 04:21:20;;;;;;;0.00;0.00;;;27.00;64.70;;;;;;5046624;28;20041;-76
2022/08/10 04:23:48;;;;;;;0.00;0.00;;;27.30;61.30;;;;;;5044297;28;20137;-77
2022/08/10 04:26:15;;;;;;;0.05;0.05;;;27.50;60.60;;;;;;5049406;28;20060;-77
2022/08/10 04:28:42;;;;;;;0.00;0.00;;;27.60;60.80;;;;;;5040346;28;20042;-77
2022/08/10 04:31:11;;;;;;;0.00;0.00;;;27.40;61.70;;;;;;5049311;28;20036;-77
2022/08/10 04:33:42;;;;;;;0.00;0.00;;;26.80;64.10;;;;;;5047651;28;20115;-78
2022/08/10 04:36:10;;;;;;;0.00;0.00;;;27.00;66.10;;;;;;5047586;28;20045;-77
2022/08/10 04:38:37;;;;;;;0.00;0.00;;;27.10;67.30;;;;;;5047006;28;20067;-77
2022/08/10 04:41:04;;;;;;;0.00;0.00;;;27.20;66.30;;;;;;5046612;28;20048;-77
2022/08/10 04:43:30;;;;;;;0.00;0.00;;;27.10;64.90;;;;;;5048403;28;20032;-77
2022/08/10 04:45:56;;;;;;;0.00;0.00;;;27.30;65.80;;;;;;5044876;28;20483;-77
2022/08/10 04:48:23;;;;;;;0.00;0.00;;;27.10;66.30;;;;;;5052708;28;20120;-77
2022/08/10 04:50:51;;;;;;;0.00;0.00;;;26.90;68.60;;;;;;5048585;28;20514;-77
2022/08/10 04:53:17;;;;;;;0.52;0.52;;;27.00;69.80;;;;;;5051451;28;20494;-79
2022/08/10 04:55:43;;;;;;;0.00;0.00;;;26.90;64.40;;;;;;5039717;28;20033;-77
2022/08/10 04:58:10;;;;;;;0.00;0.00;;;26.90;67.30;;;;;;5049042;28;20542;-77
2022/08/10 05:00:36;;;;;;;0.05;0.05;;;26.80;67.70;;;;;;5043538;28;20044;-77
2022/08/10 05:03:05;;;;;;;0.00;0.00;;;26.80;68.30;;;;;;5038554;28;20072;-77
2022/08/10 05:05:31;;;;;;;0.28;0.28;;;27.00;68.40;;;;;;5041130;28;20032;-77
2022/08/10 05:07:57;;;;;;;0.10;0.10;;;27.20;67.70;;;;;;5047750;28;20041;-77
2022/08/10 05:10:23;;;;;;;0.15;0.15;;;27.10;66.90;;;;;;5048629;28;20033;-78
2022/08/10 05:12:49;;;;;;;1.98;1.10;;;27.20;69.00;;;;;;5035152;28;20025;-78
2022/08/10 05:15:21;;;;;;;0.30;0.30;;;27.30;67.60;;;;;;5034773;28;20037;-76
2022/08/10 05:17:47;;;;;;;0.00;0.00;;;27.60;67.00;;;;;;5052895;28;20103;-78
2022/08/10 05:20:13;;;;;;;0.17;0.17;;;27.60;65.90;;;;;;5034873;28;20034;-76
2022/08/10 05:22:42;;;;;;;0.98;0.98;;;27.80;64.80;;;;;;5038768;28;20109;-75
2022/08/10 05:25:13;;;;;;;0.00;0.00;;;27.80;63.10;;;;;;5041885;28;20037;-75
2022/08/10 05:27:40;;;;;;;0.10;0.10;;;27.80;59.00;;;;;;5048372;28;20115;-76
2022/08/10 05:30:09;;;;;;;0.00;0.00;;;27.90;56.30;;;;;;5047249;28;20403;-76
2022/08/10 05:32:37;;;;;;;0.00;0.00;;;27.90;56.70;;;;;;5024827;28;20056;-78
2022/08/10 05:35:04;;;;;;;0.00;0.00;;;27.80;57.30;;;;;;5034495;28;20037;-76
2022/08/10 05:37:32;;;;;;;0.00;0.00;;;27.90;56.70;;;;;;5033016;28;20178;-75
2022/08/10 05:40:00;;;;;;;1.52;0.68;;;27.90;56.30;;;;;;5046058;28;20092;-77
2022/08/10 05:42:27;;;;;;;0.30;0.30;;;27.80;52.50;;;;;;5035755;28;20033;-76
2022/08/10 05:44:54;;;;;;;1.27;0.90;;;27.90;51.60;;;;;;5046820;28;20049;-77
2022/08/10 05:47:20;;;;;;;0.28;0.28;;;28.00;51.30;;;;;;5037213;28;20380;-77
2022/08/10 05:49:48;;;;;;;0.52;0.40;;;28.00;49.70;;;;;;5034328;28;20064;-77
2022/08/10 05:52:17;;;;;;;0.10;0.10;;;28.00;51.20;;;;;;5042771;28;20363;-77
2022/08/10 05:54:44;;;;;;;2.25;1.80;;;28.10;50.00;;;;;;5026826;28;21360;-77
2022/08/10 05:57:11;;;;;;;0.45;0.45;;;28.00;51.20;;;;;;5041590;28;21002;-78
2022/08/10 05:59:45;;;;;;;0.00;0.00;;;27.90;49.80;;;;;;5042938;28;20045;-77
2022/08/10 06:02:15;;;;;;;13.60;4.43;;;28.00;50.60;;;;;;5039689;28;20033;-77
2022/08/10 06:04:45;;;;;;;0.00;0.00;;;28.10;49.50;;;;;;5044672;28;20060;-77
2022/08/10 06:07:12;;;;;;;0.93;0.93;;;28.00;49.10;;;;;;5033299;28;20076;-77
2022/08/10 06:09:40;;;;;;;0.00;0.00;;;28.00;49.40;;;;;;5044498;28;20491;-77
2022/08/10 06:12:10;;;;;;;0.00;0.00;;;28.10;51.60;;;;;;5048208;28;20162;-77
2022/08/10 06:17:24;;;;;;;0.00;0.00;;;28.50;50.10;;;;;;5036995;28;20525;-77
2022/08/10 06:19:51;;;;;;;1.48;0.85;;;28.80;50.10;;;;;;5046268;28;20473;-77
2022/08/10 06:22:18;;;;;;;3.63;3.13;;;28.30;49.50;;;;;;5049338;28;20116;-76
2022/08/10 06:24:45;;;;;;;0.75;0.75;;;27.80;47.40;;;;;;5038332;28;20041;-76
2022/08/10 06:27:12;;;;;;;0.00;0.00;;;27.90;47.40;;;;;;5044837;28;20039;-78
2022/08/10 06:29:42;;;;;;;0.00;0.00;;;28.20;47.90;;;;;;5048672;28;20076;-79
2022/08/10 06:32:10;;;;;;;0.20;0.20;;;28.30;47.30;;;;;;5030216;28;20472;-77
2022/08/10 06:34:46;;;;;;;0.65;0.57;;;28.50;48.20;;;;;;5043626;28;20511;-77
2022/08/10 06:37:16;;;;;;;0.10;0.10;;;28.70;48.00;;;;;;5047133;28;20112;-77
2022/08/10 06:39:43;;;;;;;0.08;0.08;;;28.70;43.80;;;;;;5033525;28;20037;-77
2022/08/10 06:42:22;;;;;;;0.70;0.70;;;28.50;42.50;;;;;;5039440;28;20043;-77
2022/08/10 06:44:59;;;;;;;0.10;0.10;;;28.40;40.80;;;;;;5036884;28;20048;-77
2022/08/10 06:47:36;;;;;;;0.00;0.00;;;28.50;41.80;;;;;;5046855;28;20036;-77
2022/08/10 06:50:11;;;;;;;0.00;0.00;;;28.50;42.10;;;;;;5036020;28;20029;-77
2022/08/10 06:52:38;;;;;;;0.00;0.00;;;28.40;42.50;;;;;;5052115;28;20029;-77
2022/08/10 06:55:09;;;;;;;0.00;0.00;;;28.60;42.20;;;;;;5036936;28;20032;-75
2022/08/10 06:57:37;;;;;;;0.63;0.55;;;28.60;42.90;;;;;;5044663;28;20033;-77
2022/08/10 07:00:05;;;;;;;0.00;0.00;;;28.80;42.90;;;;;;5045650;28;20033;-77
2022/08/10 07:02:47;;;;;;;0.05;0.05;;;28.80;42.90;;;;;;5042362;28;20048;-77
2022/08/10 07:05:21;;;;;;;1.15;0.85;;;28.70;44.60;;;;;;5045787;28;20452;-77
2022/08/10 07:07:51;;;;;;;0.00;0.00;;;28.90;43.60;;;;;;5048390;28;20710;-76
2022/08/10 07:10:20;;;;;;;0.08;0.08;;;29.00;43.70;;;;;;5040993;28;20033;-77
2022/08/10 07:12:49;;;;;;;0.00;0.00;;;28.80;42.00;;;;;;5039989;28;20117;-77
2022/08/10 07:15:17;;;;;;;0.00;0.00;;;28.70;40.40;;;;;;5027459;28;20498;-77
2022/08/10 07:17:45;;;;;;;0.20;0.20;;;28.90;41.30;;;;;;5016157;28;20034;-77
2022/08/10 07:20:17;;;;;;;0.00;0.00;;;29.10;40.70;;;;;;5022051;28;20348;-77
2022/08/10 07:22:49;;;;;;;1.27;0.65;;;29.20;41.40;;;;;;5020420;28;20044;-76
2022/08/10 07:25:19;;;;;;;0.10;0.05;;;29.20;40.80;;;;;;5009985;28;20033;-77
2022/08/10 07:27:47;;;;;;;0.75;0.75;;;29.10;39.80;;;;;;5025098;28;20046;-77
2022/08/10 07:30:13;;;;;;;1.73;0.30;;;29.10;40.80;;;;;;5020662;28;20037;-76
2022/08/10 07:32:43;;;;;;;0.47;0.47;;;29.20;40.60;;;;;;5030248;28;20314;-77
2022/08/10 07:35:14;;;;;;;1.85;0.73;;;29.00;39.30;;;;;;5027451;28;20026;-76
2022/08/10 07:37:41;;;;;;;4.28;0.47;;;29.10;39.90;;;;;;5013318;28;20041;-76
2022/08/10 07:40:09;;;;;;;0.52;0.52;;;29.30;39.00;;;;;;5026208;28;20041;-76
2022/08/10 07:42:36;;;;;;;3.25;1.27;;;29.30;39.30;;;;;;5022918;28;20034;-77
2022/08/10 07:45:04;;;;;;;0.10;0.10;;;29.40;39.90;;;;;;5024853;28;20037;-78
2022/08/10 07:47:36;;;;;;;0.32;0.30;;;29.40;40.50;;;;;;5026670;28;20041;-77
2022/08/10 07:50:07;;;;;;;0.05;0.00;;;29.40;41.50;;;;;;5026044;28;20041;-77
2022/08/10 07:52:36;;;;;;;1.50;0.30;;;29.70;42.50;;;;;;5027304;28;20033;-77
2022/08/10 07:55:07;;;;;;;0.45;0.38;;;29.80;41.00;;;;;;5021514;28;20084;-77
2022/08/10 07:57:35;;;;;;;0.00;0.00;;;29.70;41.60;;;;;;5024426;28;20030;-77
2022/08/10 08:00:10;;;;;;;0.20;0.20;;;29.70;42.20;;;;;;5018158;28;20382;-77
2022/08/10 08:02:56;;;;;;;0.10;0.10;;;29.80;40.50;;;;;;5026518;28;20033;-76
2022/08/10 08:05:25;;;;;;;0.00;0.00;;;29.40;42.00;;;;;;5028968;28;20060;-77
2022/08/10 08:07:53;;;;;;;0.38;0.28;;;29.70;42.40;;;;;;5014947;28;20030;-77
2022/08/10 08:10:23;;;;;;;0.68;0.57;;;30.00;42.40;;;;;;5017603;28;20033;-76
2022/08/10 08:12:51;;;;;;;0.68;0.25;;;30.10;42.80;;;;;;5022583;28;20030;-76
2022/08/10 08:15:21;;;;;;;3.13;1.77;;;30.00;42.80;;;;;;5022221;28;20084;-76
2022/08/10 08:17:49;;;;;;;1.98;0.52;;;29.90;42.10;;;;;;5027522;28;20361;-77
2022/08/10 08:20:16;;;;;;;1.63;1.38;;;29.70;41.20;;;;;;5026141;28;20040;-77
2022/08/10 08:22:44;;;;;;;1.60;1.13;;;29.30;41.60;;;;;;5023756;28;20036;-76
2022/08/10 08:25:12;;;;;;;0.65;0.50;;;29.40;40.60;;;;;;5024242;28;20444;-76
2022/08/10 08:27:40;;;;;;;0.00;0.00;;;29.60;39.40;;;;;;5025261;28;20034;-77
2022/08/10 08:30:07;;;;;;;2.45;1.10;;;29.70;40.00;;;;;;5004694;28;20045;-77
2022/08/10 08:32:36;;;;;;;0.40;0.40;;;29.60;39.20;;;;;;5025242;28;20073;-76
2022/08/10 08:35:07;;;;;;;1.95;1.20;;;29.70;38.70;;;;;;5024923;28;20029;-77
2022/08/10 08:37:35;;;;;;;0.10;0.08;;;29.80;38.70;;;;;;5026828;28;20034;-77
2022/08/10 08:40:08;;;;;;;0.00;0.00;;;29.60;39.40;;;;;;5019189;28;20033;-78
2022/08/10 08:43:04;;;;;;;0.77;0.75;;;29.90;37.50;;;;;;5005179;28;20080;-77
2022/08/10 08:45:57;;;;;;;0.30;0.30;;;30.10;37.90;;;;;;5024616;28;20185;-76
2022/08/10 08:48:33;;;;;;;0.10;0.10;;;30.10;39.10;;;;;;5021865;28;20033;-76
2022/08/10 08:51:18;;;;;;;0.10;0.10;;;30.20;38.20;;;;;;5018277;28;20040;-76
2022/08/10 08:54:11;;;;;;;0.30;0.30;;;30.30;37.20;;;;;;5017262;28;21338;-77
2022/08/10 08:56:48;;;;;;;0.00;0.00;;;30.20;38.60;;;;;;5020913;28;20030;-77
2022/08/10 08:59:38;;;;;;;0.52;0.17;;;30.50;39.00;;;;;;5026020;28;20065;-76
2022/08/10 09:02:25;;;;;;;2.13;0.55;;;30.50;36.80;;;;;;5015213;28;20046;-76
2022/08/10 09:05:33;;;;;;;0.10;0.10;;;30.10;37.30;;;;;;5015934;28;20385;-76
2022/08/10 09:08:23;;;;;;;0.00;0.00;;;30.30;37.20;;;;;;5020716;28;20526;-77
2022/08/10 09:10:57;;;;;;;0.13;0.13;;;30.30;38.40;;;;;;5024657;28;20045;-78
2022/08/10 09:13:28;;;;;;;0.00;0.00;;;30.40;37.20;;;;;;5013809;28;20033;-77
2022/08/10 09:16:13;;;;;;;1.95;1.88;;;30.00;37.20;;;;;;5029936;28;20388;-77
2022/08/10 09:18:56;;;;;;;0.28;0.28;;;30.20;37.30;;;;;;5041103;28;20052;-78
2022/08/10 09:21:47;;;;;;;2.30;2.20;;;30.10;37.80;;;;;;5049637;28;20033;-78
2022/08/10 09:24:25;;;;;;;0.32;0.32;;;30.60;37.30;;;;;;5044726;28;20036;-79
2022/08/10 09:26:52;;;;;;;0.00;0.00;;;30.40;37.30;;;;;;5046880;28;20078;-80
2022/08/10 09:29:28;;;;;;;4.95;0.32;;;30.40;38.10;;;;;;5044132;28;20040;-79
2022/08/10 09:32:25;;;;;;;0.00;0.00;;;30.10;39.10;;;;;;5043767;28;20029;-79
2022/08/10 09:35:25;;;;;;;0.00;0.00;;;29.70;39.10;;;;;;5037212;28;20103;-77
2022/08/10 09:38:05;;;;;;;0.00;0.00;;;30.10;39.00;;;;;;5042529;28;20110;-78
2022/08/10 09:41:03;;;;;;;0.00;0.00;;;29.90;39.60;;;;;;5040828;28;20037;-77
2022/08/10 09:43:47;;;;;;;0.00;0.00;;;29.50;40.50;;;;;;5046082;28;20041;-77
2022/08/10 09:46:20;;;;;;;0.00;0.00;;;29.60;41.00;;;;;;5040446;28;20063;-77
2022/08/10 09:49:16;;;;;;;0.75;0.43;;;29.40;41.90;;;;;;5047484;28;20048;-77
2022/08/10 09:52:01;;;;;;;0.00;0.00;;;29.60;42.00;;;;;;5041307;28;20111;-76
2022/08/10 09:54:44;;;;;;;0.00;0.00;;;29.70;41.70;;;;;;5045546;28;20044;-77
2022/08/10 09:57:33;;;;;;;0.00;0.00;;;29.90;42.10;;;;;;5043874;28;20033;-77
2022/08/10 10:00:04;;;;;;;0.00;0.00;;;29.80;42.00;;;;;;5044223;28;20138;-77
2022/08/10 10:02:37;;;;;;;0.20;0.20;;;29.70;42.50;;;;;;5042641;28;20051;-76
2022/08/10 10:05:40;;;;;;;0.08;0.08;;;29.70;44.00;;;;;;5041364;28;20103;-77
2022/08/10 10:08:20;;;;;;;0.00;0.00;;;29.20;44.60;;;;;;5004546;28;20029;-77
2022/08/10 10:11:08;;;;;;;0.00;0.00;;;29.20;45.20;;;;;;5047461;28;20041;-77
2022/08/10 10:14:12;;;;;;;0.10;0.10;;;29.30;45.00;;;;;;5044452;28;20106;-78
2022/08/10 10:17:04;;;;;;;0.00;0.00;;;29.10;45.30;;;;;;5042590;28;20049;-77
2022/08/10 10:19:47;;;;;;;0.10;0.10;;;29.30;45.60;;;;;;5044208;28;20041;-77
2022/08/10 10:22:43;;;;;;;0.00;0.00;;;29.30;46.60;;;;;;5048735;28;20037;-75
2022/08/10 10:25:32;;;;;;;0.40;0.40;;;28.90;45.70;;;;;;5026906;28;20048;-76
2022/08/10 10:28:24;;;;;;;0.63;0.28;;;28.70;46.30;;;;;;5044487;28;20503;-76
2022/08/10 10:31:14;;;;;;;0.10;0.10;;;28.50;47.10;;;;;;5045786;28;20044;-76
2022/08/10 10:34:08;;;;;;;0.85;0.60;;;28.10;48.60;;;;;;5045614;28;20036;-77
2022/08/10 10:36:36;;;;;;;0.60;0.30;;;27.70;49.40;;;;;;5048304;28;20438;-77
2022/08/10 10:39:03;;;;;;;2.20;1.00;;;27.50;49.80;;;;;;5044999;28;20301;-77
2022/08/10 10:41:41;;;;;;;0.00;0.00;;;27.20;49.80;;;;;;5047069;28;20068;-77
2022/08/10 10:44:36;;;;;;;0.00;0.00;;;27.00;50.00;;;;;;5046452;28;20048;-77
2022/08/10 10:47:20;;;;;;;0.00;0.00;;;27.30;50.50;;;;;;5038295;28;20171;-76
2022/08/10 10:49:51;;;;;;;0.10;0.10;;;27.30;50.60;;;;;;5043490;28;20041;-77
2022/08/10 10:52:50;;;;;;;0.17;0.10;;;27.40;50.10;;;;;;5048863;28;20032;-77
2022/08/10 10:55:44;;;;;;;0.00;0.00;;;27.40;50.60;;;;;;5046957;28;20025;-76
2022/08/10 10:58:27;;;;;;;0.00;0.00;;;27.40;50.60;;;;;;5035818;28;20040;-77
2022/08/10 11:01:11;;;;;;;0.10;0.10;;;27.30;50.90;;;;;;5044361;28;21417;-76
2022/08/10 11:03:46;;;;;;;3.53;3.42;;;27.60;50.30;;;;;;5045065;28;20108;-78
2022/08/10 11:06:31;;;;;;;0.10;0.10;;;28.00;49.40;;;;;;5042342;28;20036;-78
2022/08/10 11:09:01;;;;;;;0.08;0.08;;;28.10;47.70;;;;;;5042966;28;20041;-77
2022/08/10 11:11:42;;;;;;;0.47;0.47;;;28.20;48.00;;;;;;5045241;28;20502;-77
2022/08/10 11:14:32;;;;;;;0.35;0.35;;;28.10;48.30;;;;;;5045985;28;20037;-77
2022/08/10 11:17:31;;;;;;;0.00;0.00;;;28.10;49.00;;;;;;5036860;28;20530;-77
2022/08/10 11:20:38;;;;;;;0.00;0.00;;;27.90;50.30;;;;;;5036477;28;20471;-75
2022/08/10 11:23:33;;;;;;;0.55;0.55;;;28.10;48.80;;;;;;5042900;28;20040;-75
2022/08/10 11:26:25;;;;;;;0.30;0.30;;;28.00;48.60;;;;;;5042378;28;20041;-75
2022/08/10 11:29:13;;;;;;;0.00;0.00;;;28.20;48.50;;;;;;5035005;28;20036;-75
2022/08/10 11:31:45;;;;;;;1.35;1.35;;;28.30;48.30;;;;;;5044738;28;20033;-75
2022/08/10 11:34:14;;;;;;;0.00;0.00;;;28.60;48.70;;;;;;5044930;28;20025;-74
2022/08/10 11:37:23;;;;;;;0.00;0.00;;;28.60;48.20;;;;;;5045451;28;20041;-74
2022/08/10 11:40:06;;;;;;;0.00;0.00;;;28.70;47.20;;;;;;5058178;28;20617;-75
2022/08/10 11:42:43;;;;;;;0.00;0.00;;;28.70;46.30;;;;;;5041741;28;20056;-75
2022/08/10 11:45:26;;;;;;;0.00;0.00;;;28.70;46.20;;;;;;5044708;28;20073;-74
2022/08/10 11:47:57;;;;;;;1.23;0.75;;;28.50;45.90;;;;;;5037197;28;20533;-75
2022/08/10 11:50:24;;;;;;;0.00;0.00;;;28.50;46.10;;;;;;5066064;28;20049;-74
2022/08/10 11:53:21;;;;;;;0.00;0.00;;;28.50;46.80;;;;;;5044508;28;20037;-74
2022/08/10 11:55:57;;;;;;;3.05;2.85;;;28.50;45.70;;;;;;5045192;28;20509;-73
2022/08/10 12:01:20;;;;;;;0.00;0.00;;;28.30;46.40;;;;;;5043804;28;20047;-75
2022/08/10 12:03:47;;;;;;;0.10;0.10;;;28.10;46.60;;;;;;5046536;28;20028;-75
2022/08/10 12:06:18;;;;;;;0.08;0.08;;;28.10;47.30;;;;;;5044159;28;20037;-75
2022/08/10 12:08:47;;;;;;;0.20;0.20;;;27.90;47.20;;;;;;5046799;28;20056;-75
2022/08/10 12:11:16;;;;;;;0.00;0.00;;;27.70;48.10;;;;;;5043019;28;20057;-75
2022/08/10 12:13:51;;;;;;;0.00;0.00;;;27.80;48.00;;;;;;5043116;28;20533;-74
2022/08/10 12:16:22;;;;;;;9.60;1.50;;;27.70;48.20;;;;;;5045971;28;20471;-73
2022/08/10 12:19:01;;;;;;;0.22;0.10;;;27.60;48.50;;;;;;5047183;28;20682;-74
2022/08/10 12:21:41;;;;;;;0.75;0.57;;;27.50;48.90;;;;;;5050270;28;20033;-74
2022/08/10 12:24:22;;;;;;;0.10;0.10;;;27.50;49.10;;;;;;5039641;28;20138;-74
2022/08/10 12:26:58;;;;;;;0.00;0.00;;;27.30;49.60;;;;;;5048362;28;20038;-74
2022/08/10 12:29:37;;;;;;;0.00;0.00;;;27.00;50.60;;;;;;5046495;28;20064;-74
2022/08/10 12:32:26;;;;;;;0.10;0.10;;;26.60;52.20;;;;;;5046045;28;20115;-76
2022/08/10 12:35:10;;;;;;;0.75;0.50;;;26.60;55.10;;;;;;5044728;28;20052;-74
2022/08/10 12:37:49;;;;;;;2.63;0.73;;;26.50;56.00;;;;;;5038424;28;20034;-73
2022/08/10 12:40:25;;;;;;;0.00;0.00;;;25.90;61.20;;;;;;5052166;28;20033;-72
2022/08/10 12:43:12;;;;;;;0.00;0.00;;;25.50;71.00;;;;;;5047833;28;20056;-76
2022/08/10 12:45:49;;;;;;;1.00;0.35;;;25.10;73.70;;;;;;5049696;28;20029;-73
2022/08/10 12:48:51;;;;;;;1.10;0.85;;;24.80;99.90;;;;;;5044555;28;20040;-73
2022/08/10 12:51:29;;;;;;;0.00;0.00;;;24.10;99.90;;;;;;4969763;28;20069;-76
2022/08/10 12:54:16;;;;;;;1.35;1.25;;;23.80;99.90;;;;;;5038183;28;20038;-75
2022/08/10 12:57:00;;;;;;;0.00;0.00;;;23.60;99.90;;;;;;5046202;28;20029;-74
2022/08/10 12:59:30;;;;;;;0.65;0.65;;;23.50;99.90;;;;;;5050977;28;20033;-76
2022/08/10 13:01:58;;;;;;;1.35;1.25;;;23.50;99.90;;;;;;5046264;28;20034;-75
2022/08/10 13:04:39;;;;;;;0.00;0.00;;;23.40;99.90;;;;;;5046247;28;21148;-75
2022/08/10 13:07:06;;;;;;;1.55;1.17;;;23.30;99.90;;;;;;5048214;28;20291;-75
2022/08/10 13:09:33;;;;;;;1.58;1.15;;;23.40;95.60;;;;;;5054251;28;20109;-74
2022/08/10 13:12:02;;;;;;;0.47;0.25;;;23.80;89.10;;;;;;5049698;28;20051;-75
2022/08/10 13:14:37;;;;;;;0.38;0.10;;;23.90;86.40;;;;;;5052547;28;20040;-76
2022/08/10 13:17:06;;;;;;;0.60;0.60;;;24.00;89.70;;;;;;5030354;28;20046;-74
2022/08/10 13:19:40;;;;;;;0.00;0.00;;;24.00;91.80;;;;;;5030434;28;20412;-75
2022/08/10 13:22:07;;;;;;;0.65;0.28;;;23.90;90.30;;;;;;5030124;28;20065;-73
2022/08/10 13:24:40;;;;;;;0.95;0.32;;;23.70;90.50;;;;;;5031447;28;20040;-73
2022/08/10 13:27:13;;;;;;;0.10;0.10;;;23.80;91.00;;;;;;5030876;28;20617;-77
2022/08/10 13:29:49;;;;;;;0.15;0.15;;;23.90;89.10;;;;;;5023466;28;20033;-75
2022/08/10 13:32:21;;;;;;;0.10;0.10;;;23.90;84.70;;;;;;5031162;28;20060;-75